sensor_id;sensor_type;location;lat;lon;timestamp;temperature;humidity
14101;DHT22;7127;49.372;8.166;2022-08-19T00:01:17;25.60;49.60
14101;DHT22;7127;49.372;8.166;2022-08-19T00:03:44;25.60;49.70
14101;DHT22;7127;49.372;8.166;2022-08-19T00:06:12;25.60;49.70
14101;DHT22;7127;49.372;8.166;2022-08-19T00:08:39;25.60;49.70
14101;DHT22;7127;49.372;8.166;2022-08-19T00:11:07;25.60;49.70
14101;DHT22;7127;49.372;8.166;2022-08-19T00:13:34;25.60;49.70
14101;DHT22;7127;49.372;8.166;2022-08-19T00:16:02;25.60;49.80
14101;DHT22;7127;49.372;8.166;2022-08-19T00:18:31;25.60;49.90
14101;DHT22;7127;49.372;8.166;2022-08-19T00:20:58;25.60;49.90
14101;DHT22;7127;49.372;8.166;2022-08-19T00:23:26;25.60;49.90
14101;DHT22;7127;49.372;8.166;2022-08-19T00:25:53;25.50;50.00
14101;DHT22;7127;49.372;8.166;2022-08-19T00:28:20;25.50;50.00
14101;DHT22;7127;49.372;8.166;2022-08-19T00:30:48;25.50;50.10
14101;DHT22;7127;49.372;8.166;2022-08-19T00:33:17;25.40;50.00
14101;DHT22;7127;49.372;8.166;2022-08-19T00:35:46;25.40;50.10
14101;DHT22;7127;49.372;8.166;2022-08-19T00:38:13;25.50;50.60
14101;DHT22;7127;49.372;8.166;2022-08-19T00:40:43;25.50;50.10
14101;DHT22;7127;49.372;8.166;2022-08-19T00:43:13;25.50;50.10
14101;DHT22;7127;49.372;8.166;2022-08-19T00:45:40;25.50;50.20
14101;DHT22;7127;49.372;8.166;2022-08-19T00:48:09;25.50;50.10
14101;DHT22;7127;49.372;8.166;2022-08-19T00:50:38;25.50;50.20
14101;DHT22;7127;49.372;8.166;2022-08-19T00:53:11;25.60;50.20
14101;DHT22;7127;49.372;8.166;2022-08-19T00:55:41;25.50;50.20
14101;DHT22;7127;49.372;8.166;2022-08-19T00:58:11;25.50;50.10
14101;DHT22;7127;49.372;8.166;2022-08-19T01:00:39;25.50;50.20
14101;DHT22;7127;49.372;8.166;2022-08-19T01:03:08;25.40;50.10
14101;DHT22;7127;49.372;8.166;2022-08-19T01:05:36;25.40;50.20
14101;DHT22;7127;49.372;8.166;2022-08-19T01:08:05;25.40;50.20
14101;DHT22;7127;49.372;8.166;2022-08-19T01:10:38;25.40;50.10
14101;DHT22;7127;49.372;8.166;2022-08-19T01:13:06;25.40;50.10
14101;DHT22;7127;49.372;8.166;2022-08-19T01:15:35;25.40;50.20
14101;DHT22;7127;49.372;8.166;2022-08-19T01:18:09;25.30;50.10
14101;DHT22;7127;49.372;8.166;2022-08-19T01:20:37;25.30;50.30
14101;DHT22;7127;49.372;8.166;2022-08-19T01:23:05;25.30;50.20
14101;DHT22;7127;49.372;8.166;2022-08-19T01:25:38;25.30;50.20
14101;DHT22;7127;49.372;8.166;2022-08-19T01:28:07;25.30;50.40
14101;DHT22;7127;49.372;8.166;2022-08-19T01:30:35;25.30;50.50
14101;DHT22;7127;49.372;8.166;2022-08-19T01:33:03;25.20;50.40
14101;DHT22;7127;49.372;8.166;2022-08-19T01:35:31;25.30;50.40
14101;DHT22;7127;49.372;8.166;2022-08-19T01:38:01;25.20;50.30
14101;DHT22;7127;49.372;8.166;2022-08-19T01:40:37;25.20;50.50
14101;DHT22;7127;49.372;8.166;2022-08-19T01:43:06;25.20;50.40
14101;DHT22;7127;49.372;8.166;2022-08-19T01:45:34;25.20;50.40
14101;DHT22;7127;49.372;8.166;2022-08-19T01:48:01;25.20;50.40
14101;DHT22;7127;49.372;8.166;2022-08-19T01:50:29;25.20;50.40
14101;DHT22;7127;49.372;8.166;2022-08-19T01:52:58;25.30;50.50
14101;DHT22;7127;49.372;8.166;2022-08-19T01:55:25;25.30;50.50
14101;DHT22;7127;49.372;8.166;2022-08-19T01:57:56;25.30;51.00
14101;DHT22;7127;49.372;8.166;2022-08-19T02:00:26;25.30;50.30
14101;DHT22;7127;49.372;8.166;2022-08-19T02:02:54;25.30;50.20
14101;DHT22;7127;49.372;8.166;2022-08-19T02:05:22;25.30;50.10
14101;DHT22;7127;49.372;8.166;2022-08-19T02:07:49;25.30;50.10
14101;DHT22;7127;49.372;8.166;2022-08-19T02:10:20;25.30;50.10
14101;DHT22;7127;49.372;8.166;2022-08-19T02:12:47;25.40;50.10
14101;DHT22;7127;49.372;8.166;2022-08-19T02:15:17;25.40;50.20
14101;DHT22;7127;49.372;8.166;2022-08-19T02:17:46;25.40;50.10
14101;DHT22;7127;49.372;8.166;2022-08-19T02:20:14;25.40;50.10
14101;DHT22;7127;49.372;8.166;2022-08-19T02:22:42;25.40;50.20
14101;DHT22;7127;49.372;8.166;2022-08-19T02:25:10;25.40;50.10
14101;DHT22;7127;49.372;8.166;2022-08-19T02:27:37;25.40;50.10
14101;DHT22;7127;49.372;8.166;2022-08-19T02:30:06;25.40;50.10
14101;DHT22;7127;49.372;8.166;2022-08-19T02:32:35;25.40;50.20
14101;DHT22;7127;49.372;8.166;2022-08-19T02:35:03;25.40;50.10
14101;DHT22;7127;49.372;8.166;2022-08-19T02:37:31;25.40;50.10
14101;DHT22;7127;49.372;8.166;2022-08-19T02:40:16;25.40;50.20
14101;DHT22;7127;49.372;8.166;2022-08-19T02:42:43;25.30;50.10
14101;DHT22;7127;49.372;8.166;2022-08-19T02:45:11;25.30;50.10
14101;DHT22;7127;49.372;8.166;2022-08-19T02:47:40;25.30;50.40
14101;DHT22;7127;49.372;8.166;2022-08-19T02:50:09;25.30;50.30
14101;DHT22;7127;49.372;8.166;2022-08-19T02:52:36;25.20;50.30
14101;DHT22;7127;49.372;8.166;2022-08-19T02:55:05;25.20;50.30
14101;DHT22;7127;49.372;8.166;2022-08-19T02:57:32;25.20;50.40
14101;DHT22;7127;49.372;8.166;2022-08-19T03:00:00;25.20;50.50
14101;DHT22;7127;49.372;8.166;2022-08-19T03:02:27;25.20;50.60
14101;DHT22;7127;49.372;8.166;2022-08-19T03:04:55;25.20;50.60
14101;DHT22;7127;49.372;8.166;2022-08-19T03:07:23;25.20;50.50
14101;DHT22;7127;49.372;8.166;2022-08-19T03:09:50;25.10;50.60
14101;DHT22;7127;49.372;8.166;2022-08-19T03:12:17;25.10;50.50
14101;DHT22;7127;49.372;8.166;2022-08-19T03:14:44;25.10;50.50
14101;DHT22;7127;49.372;8.166;2022-08-19T03:17:12;25.10;50.60
14101;DHT22;7127;49.372;8.166;2022-08-19T03:19:39;25.10;50.60
14101;DHT22;7127;49.372;8.166;2022-08-19T03:22:08;25.10;50.60
14101;DHT22;7127;49.372;8.166;2022-08-19T03:24:35;25.10;50.60
14101;DHT22;7127;49.372;8.166;2022-08-19T03:27:02;25.10;50.60
14101;DHT22;7127;49.372;8.166;2022-08-19T03:29:31;25.10;50.60
14101;DHT22;7127;49.372;8.166;2022-08-19T03:31:59;25.10;50.60
14101;DHT22;7127;49.372;8.166;2022-08-19T03:34:29;25.10;50.70
14101;DHT22;7127;49.372;8.166;2022-08-19T03:36:59;25.10;50.70
14101;DHT22;7127;49.372;8.166;2022-08-19T03:39:28;25.10;50.70
14101;DHT22;7127;49.372;8.166;2022-08-19T03:41:55;25.00;50.60
14101;DHT22;7127;49.372;8.166;2022-08-19T03:44:28;25.00;50.70
14101;DHT22;7127;49.372;8.166;2022-08-19T03:46:59;25.00;50.60
14101;DHT22;7127;49.372;8.166;2022-08-19T03:49:28;25.00;50.60
14101;DHT22;7127;49.372;8.166;2022-08-19T03:51:57;25.00;50.60
14101;DHT22;7127;49.372;8.166;2022-08-19T03:54:28;25.00;50.70
14101;DHT22;7127;49.372;8.166;2022-08-19T03:56:56;25.00;50.70
14101;DHT22;7127;49.372;8.166;2022-08-19T03:59:26;25.00;50.80
14101;DHT22;7127;49.372;8.166;2022-08-19T04:01:54;24.90;50.70
14101;DHT22;7127;49.372;8.166;2022-08-19T04:04:22;24.90;50.70
14101;DHT22;7127;49.372;8.166;2022-08-19T04:06:50;24.90;50.70
14101;DHT22;7127;49.372;8.166;2022-08-19T04:09:18;24.90;50.90
14101;DHT22;7127;49.372;8.166;2022-08-19T04:11:49;24.90;50.90
14101;DHT22;7127;49.372;8.166;2022-08-19T04:14:22;24.80;50.90
14101;DHT22;7127;49.372;8.166;2022-08-19T04:16:51;24.80;51.00
14101;DHT22;7127;49.372;8.166;2022-08-19T04:19:19;24.70;51.00
14101;DHT22;7127;49.372;8.166;2022-08-19T04:21:48;24.70;51.00
14101;DHT22;7127;49.372;8.166;2022-08-19T04:24:18;24.70;51.00
14101;DHT22;7127;49.372;8.166;2022-08-19T04:26:47;24.70;51.10
14101;DHT22;7127;49.372;8.166;2022-08-19T04:29:16;24.70;51.10
14101;DHT22;7127;49.372;8.166;2022-08-19T04:31:45;24.70;51.30
14101;DHT22;7127;49.372;8.166;2022-08-19T04:34:15;24.70;51.40
14101;DHT22;7127;49.372;8.166;2022-08-19T04:36:44;24.70;51.40
14101;DHT22;7127;49.372;8.166;2022-08-19T04:39:13;24.70;51.30
14101;DHT22;7127;49.372;8.166;2022-08-19T04:41:41;24.70;51.30
14101;DHT22;7127;49.372;8.166;2022-08-19T04:44:29;24.70;51.30
14101;DHT22;7127;49.372;8.166;2022-08-19T04:46:57;24.70;51.20
14101;DHT22;7127;49.372;8.166;2022-08-19T04:49:24;24.70;51.10
14101;DHT22;7127;49.372;8.166;2022-08-19T04:51:53;24.80;51.20
14101;DHT22;7127;49.372;8.166;2022-08-19T04:54:22;24.80;51.20
14101;DHT22;7127;49.372;8.166;2022-08-19T04:56:50;24.80;51.20
14101;DHT22;7127;49.372;8.166;2022-08-19T04:59:18;24.80;51.10
14101;DHT22;7127;49.372;8.166;2022-08-19T05:01:48;24.90;51.10
14101;DHT22;7127;49.372;8.166;2022-08-19T05:04:17;24.90;51.10
14101;DHT22;7127;49.372;8.166;2022-08-19T05:06:44;24.90;51.10
14101;DHT22;7127;49.372;8.166;2022-08-19T05:09:13;24.90;51.20
14101;DHT22;7127;49.372;8.166;2022-08-19T05:11:40;24.90;51.20
14101;DHT22;7127;49.372;8.166;2022-08-19T05:14:11;24.90;51.20
14101;DHT22;7127;49.372;8.166;2022-08-19T05:16:39;24.90;51.20
14101;DHT22;7127;49.372;8.166;2022-08-19T05:19:08;24.90;51.20
14101;DHT22;7127;49.372;8.166;2022-08-19T05:21:52;24.90;51.20
14101;DHT22;7127;49.372;8.166;2022-08-19T05:24:37;24.90;51.40
14101;DHT22;7127;49.372;8.166;2022-08-19T05:27:05;24.90;51.40
14101;DHT22;7127;49.372;8.166;2022-08-19T05:29:33;24.80;51.40
14101;DHT22;7127;49.372;8.166;2022-08-19T05:32:02;24.90;51.50
14101;DHT22;7127;49.372;8.166;2022-08-19T05:34:32;24.90;51.50
14101;DHT22;7127;49.372;8.166;2022-08-19T05:37:01;24.90;51.50
14101;DHT22;7127;49.372;8.166;2022-08-19T05:39:31;24.90;51.40
14101;DHT22;7127;49.372;8.166;2022-08-19T05:42:01;25.00;51.50
14101;DHT22;7127;49.372;8.166;2022-08-19T05:44:31;25.00;51.50
14101;DHT22;7127;49.372;8.166;2022-08-19T05:46:59;25.00;51.40
14101;DHT22;7127;49.372;8.166;2022-08-19T05:49:28;25.00;51.30
14101;DHT22;7127;49.372;8.166;2022-08-19T05:51:57;25.10;51.40
14101;DHT22;7127;49.372;8.166;2022-08-19T05:54:25;25.10;51.30
14101;DHT22;7127;49.372;8.166;2022-08-19T05:56:53;25.20;51.30
14101;DHT22;7127;49.372;8.166;2022-08-19T05:59:20;25.20;51.30
14101;DHT22;7127;49.372;8.166;2022-08-19T06:01:50;25.20;51.20
14101;DHT22;7127;49.372;8.166;2022-08-19T06:04:18;25.20;51.20
14101;DHT22;7127;49.372;8.166;2022-08-19T06:06:46;25.30;51.20
14101;DHT22;7127;49.372;8.166;2022-08-19T06:09:15;25.30;51.20
14101;DHT22;7127;49.372;8.166;2022-08-19T06:11:44;25.30;51.10
14101;DHT22;7127;49.372;8.166;2022-08-19T06:14:13;25.40;51.20
14101;DHT22;7127;49.372;8.166;2022-08-19T06:16:42;25.40;51.10
14101;DHT22;7127;49.372;8.166;2022-08-19T06:19:12;25.40;51.00
14101;DHT22;7127;49.372;8.166;2022-08-19T06:21:42;25.50;51.00
14101;DHT22;7127;49.372;8.166;2022-08-19T06:24:12;25.50;51.00
14101;DHT22;7127;49.372;8.166;2022-08-19T06:26:43;25.60;50.90
14101;DHT22;7127;49.372;8.166;2022-08-19T06:29:13;25.60;50.90
14101;DHT22;7127;49.372;8.166;2022-08-19T06:31:43;25.60;50.80
14101;DHT22;7127;49.372;8.166;2022-08-19T06:34:11;25.60;50.80
14101;DHT22;7127;49.372;8.166;2022-08-19T06:36:41;25.60;50.70
14101;DHT22;7127;49.372;8.166;2022-08-19T06:39:11;25.70;50.70
14101;DHT22;7127;49.372;8.166;2022-08-19T07:25:32;26.40;50.10
14101;DHT22;7127;49.372;8.166;2022-08-19T07:28:03;26.50;50.10
14101;DHT22;7127;49.372;8.166;2022-08-19T07:30:37;26.50;50.00
14101;DHT22;7127;49.372;8.166;2022-08-19T07:33:06;26.60;50.00
14101;DHT22;7127;49.372;8.166;2022-08-19T07:38:08;26.60;49.70
14101;DHT22;7127;49.372;8.166;2022-08-19T07:40:37;26.60;49.80
14101;DHT22;7127;49.372;8.166;2022-08-19T07:43:05;26.60;49.80
14101;DHT22;7127;49.372;8.166;2022-08-19T07:45:32;26.60;49.70
14101;DHT22;7127;49.372;8.166;2022-08-19T07:47:59;26.60;49.70
14101;DHT22;7127;49.372;8.166;2022-08-19T07:50:26;26.70;49.60
14101;DHT22;7127;49.372;8.166;2022-08-19T07:52:53;26.70;49.50
14101;DHT22;7127;49.372;8.166;2022-08-19T07:55:24;26.70;49.40
14101;DHT22;7127;49.372;8.166;2022-08-19T07:57:52;26.70;49.30
14101;DHT22;7127;49.372;8.166;2022-08-19T08:00:20;26.70;49.40
14101;DHT22;7127;49.372;8.166;2022-08-19T08:02:47;26.70;49.50
14101;DHT22;7127;49.372;8.166;2022-08-19T08:05:14;26.70;49.40
14101;DHT22;7127;49.372;8.166;2022-08-19T08:07:59;26.70;49.40
14101;DHT22;7127;49.372;8.166;2022-08-19T08:10:43;26.80;49.60
14101;DHT22;7127;49.372;8.166;2022-08-19T08:13:12;26.80;49.50
14101;DHT22;7127;49.372;8.166;2022-08-19T08:15:41;26.90;49.40
14101;DHT22;7127;49.372;8.166;2022-08-19T08:18:11;26.90;49.40
14101;DHT22;7127;49.372;8.166;2022-08-19T08:20:39;26.90;49.20
14101;DHT22;7127;49.372;8.166;2022-08-19T08:23:06;26.90;49.20
14101;DHT22;7127;49.372;8.166;2022-08-19T08:25:53;27.00;49.20
14101;DHT22;7127;49.372;8.166;2022-08-19T08:28:23;27.00;49.30
14101;DHT22;7127;49.372;8.166;2022-08-19T08:30:50;27.10;49.30
14101;DHT22;7127;49.372;8.166;2022-08-19T08:33:19;27.10;48.90
14101;DHT22;7127;49.372;8.166;2022-08-19T08:35:47;27.20;48.90
14101;DHT22;7127;49.372;8.166;2022-08-19T08:38:15;27.30;49.00
14101;DHT22;7127;49.372;8.166;2022-08-19T08:40:45;27.40;49.00
14101;DHT22;7127;49.372;8.166;2022-08-19T08:43:24;27.40;48.80
14101;DHT22;7127;49.372;8.166;2022-08-19T08:45:59;27.50;48.20
14101;DHT22;7127;49.372;8.166;2022-08-19T08:48:37;27.60;48.00
14101;DHT22;7127;49.372;8.166;2022-08-19T08:51:09;27.70;47.50
14101;DHT22;7127;49.372;8.166;2022-08-19T08:53:38;27.80;47.90
14101;DHT22;7127;49.372;8.166;2022-08-19T08:56:06;27.90;47.50
14101;DHT22;7127;49.372;8.166;2022-08-19T08:58:47;27.90;47.00
14101;DHT22;7127;49.372;8.166;2022-08-19T09:01:16;28.00;47.10
14101;DHT22;7127;49.372;8.166;2022-08-19T09:03:53;28.00;46.80
14101;DHT22;7127;49.372;8.166;2022-08-19T09:06:27;28.10;46.20
14101;DHT22;7127;49.372;8.166;2022-08-19T09:09:03;28.20;46.60
14101;DHT22;7127;49.372;8.166;2022-08-19T09:11:55;28.20;46.30
14101;DHT22;7127;49.372;8.166;2022-08-19T09:14:34;28.30;46.10
14101;DHT22;7127;49.372;8.166;2022-08-19T09:17:03;28.40;46.40
14101;DHT22;7127;49.372;8.166;2022-08-19T09:19:34;28.40;46.10
14101;DHT22;7127;49.372;8.166;2022-08-19T09:22:01;28.40;46.10
14101;DHT22;7127;49.372;8.166;2022-08-19T09:24:28;28.50;46.00
14101;DHT22;7127;49.372;8.166;2022-08-19T09:27:01;28.50;45.80
14101;DHT22;7127;49.372;8.166;2022-08-19T09:29:31;28.50;45.80
14101;DHT22;7127;49.372;8.166;2022-08-19T09:31:58;28.50;45.90
14101;DHT22;7127;49.372;8.166;2022-08-19T09:34:25;28.60;45.90
14101;DHT22;7127;49.372;8.166;2022-08-19T09:36:54;28.60;45.40
14101;DHT22;7127;49.372;8.166;2022-08-19T09:39:23;28.60;45.00
14101;DHT22;7127;49.372;8.166;2022-08-19T09:41:50;28.60;45.00
14101;DHT22;7127;49.372;8.166;2022-08-19T09:44:18;28.60;44.30
14101;DHT22;7127;49.372;8.166;2022-08-19T09:46:48;28.60;44.70
14101;DHT22;7127;49.372;8.166;2022-08-19T09:49:17;28.60;44.80
14101;DHT22;7127;49.372;8.166;2022-08-19T09:51:45;28.70;45.00
14101;DHT22;7127;49.372;8.166;2022-08-19T09:54:14;28.70;44.90
14101;DHT22;7127;49.372;8.166;2022-08-19T09:56:41;28.70;44.00
14101;DHT22;7127;49.372;8.166;2022-08-19T09:59:10;28.80;44.40
14101;DHT22;7127;49.372;8.166;2022-08-19T10:01:38;28.80;44.60
14101;DHT22;7127;49.372;8.166;2022-08-19T10:09:31;28.90;43.90
14101;DHT22;7127;49.372;8.166;2022-08-19T10:11:58;29.00;44.10
14101;DHT22;7127;49.372;8.166;2022-08-19T10:14:26;29.00;44.20
14101;DHT22;7127;49.372;8.166;2022-08-19T10:16:53;29.10;43.70
14101;DHT22;7127;49.372;8.166;2022-08-19T10:19:22;29.10;43.70
14101;DHT22;7127;49.372;8.166;2022-08-19T10:21:50;29.20;43.10
14101;DHT22;7127;49.372;8.166;2022-08-19T10:24:17;29.20;43.00
14101;DHT22;7127;49.372;8.166;2022-08-19T10:26:47;29.30;43.20
14101;DHT22;7127;49.372;8.166;2022-08-19T10:29:14;29.30;43.20
14101;DHT22;7127;49.372;8.166;2022-08-19T10:31:42;29.40;43.30
14101;DHT22;7127;49.372;8.166;2022-08-19T10:34:09;29.40;43.10
14101;DHT22;7127;49.372;8.166;2022-08-19T10:36:37;29.50;42.80
14101;DHT22;7127;49.372;8.166;2022-08-19T10:39:06;29.50;42.90
14101;DHT22;7127;49.372;8.166;2022-08-19T10:41:37;29.50;42.60
14101;DHT22;7127;49.372;8.166;2022-08-19T10:44:07;29.60;42.80
14101;DHT22;7127;49.372;8.166;2022-08-19T10:46:37;29.70;42.70
14101;DHT22;7127;49.372;8.166;2022-08-19T10:49:09;29.70;42.80
14101;DHT22;7127;49.372;8.166;2022-08-19T10:51:38;29.70;43.10
14101;DHT22;7127;49.372;8.166;2022-08-19T10:54:23;29.70;42.60
14101;DHT22;7127;49.372;8.166;2022-08-19T10:57:10;29.70;42.60
14101;DHT22;7127;49.372;8.166;2022-08-19T10:59:38;29.60;42.30
14101;DHT22;7127;49.372;8.166;2022-08-19T11:02:08;29.60;42.60
14101;DHT22;7127;49.372;8.166;2022-08-19T11:04:39;29.60;42.80
14101;DHT22;7127;49.372;8.166;2022-08-19T11:07:07;29.60;42.90
14101;DHT22;7127;49.372;8.166;2022-08-19T11:17:23;29.80;42.60
14101;DHT22;7127;49.372;8.166;2022-08-19T11:19:51;29.80;41.80
14101;DHT22;7127;49.372;8.166;2022-08-19T11:22:19;29.90;42.00
14101;DHT22;7127;49.372;8.166;2022-08-19T11:24:46;30.00;40.90
14101;DHT22;7127;49.372;8.166;2022-08-19T11:27:13;30.00;40.80
14101;DHT22;7127;49.372;8.166;2022-08-19T11:29:41;30.00;40.80
14101;DHT22;7127;49.372;8.166;2022-08-19T11:32:10;30.10;40.40
14101;DHT22;7127;49.372;8.166;2022-08-19T11:34:40;30.10;40.90
14101;DHT22;7127;49.372;8.166;2022-08-19T11:37:07;30.20;41.10
14101;DHT22;7127;49.372;8.166;2022-08-19T11:39:35;30.30;40.70
14101;DHT22;7127;49.372;8.166;2022-08-19T11:42:04;30.40;39.70
14101;DHT22;7127;49.372;8.166;2022-08-19T11:44:52;30.40;39.60
14101;DHT22;7127;49.372;8.166;2022-08-19T11:47:20;30.50;39.40
14101;DHT22;7127;49.372;8.166;2022-08-19T11:49:48;30.50;38.60
14101;DHT22;7127;49.372;8.166;2022-08-19T11:52:15;30.40;38.60
14101;DHT22;7127;49.372;8.166;2022-08-19T11:54:42;30.50;38.20
14101;DHT22;7127;49.372;8.166;2022-08-19T11:57:09;30.50;38.40
14101;DHT22;7127;49.372;8.166;2022-08-19T11:59:37;30.50;37.90
14101;DHT22;7127;49.372;8.166;2022-08-19T12:02:04;30.50;38.30
14101;DHT22;7127;49.372;8.166;2022-08-19T12:04:31;30.50;37.90
14101;DHT22;7127;49.372;8.166;2022-08-19T12:06:59;30.50;38.40
14101;DHT22;7127;49.372;8.166;2022-08-19T12:09:27;30.70;38.50
14101;DHT22;7127;49.372;8.166;2022-08-19T12:11:54;30.70;37.50
14101;DHT22;7127;49.372;8.166;2022-08-19T12:14:21;30.70;37.60
14101;DHT22;7127;49.372;8.166;2022-08-19T12:16:48;30.80;37.40
14101;DHT22;7127;49.372;8.166;2022-08-19T12:19:15;30.90;37.70
14101;DHT22;7127;49.372;8.166;2022-08-19T12:21:42;31.00;36.90
14101;DHT22;7127;49.372;8.166;2022-08-19T12:24:11;31.00;36.80
14101;DHT22;7127;49.372;8.166;2022-08-19T12:26:38;31.10;36.00
14101;DHT22;7127;49.372;8.166;2022-08-19T12:29:05;31.10;36.50
14101;DHT22;7127;49.372;8.166;2022-08-19T12:31:34;31.20;36.40
14101;DHT22;7127;49.372;8.166;2022-08-19T12:34:01;31.30;36.40
14101;DHT22;7127;49.372;8.166;2022-08-19T12:36:28;31.30;35.50
14101;DHT22;7127;49.372;8.166;2022-08-19T12:38:58;31.30;35.60
14101;DHT22;7127;49.372;8.166;2022-08-19T12:41:26;31.40;35.20
14101;DHT22;7127;49.372;8.166;2022-08-19T12:43:53;31.40;34.80
14101;DHT22;7127;49.372;8.166;2022-08-19T12:46:21;31.40;34.80
14101;DHT22;7127;49.372;8.166;2022-08-19T12:48:48;31.50;35.10
14101;DHT22;7127;49.372;8.166;2022-08-19T12:51:16;31.50;34.60
14101;DHT22;7127;49.372;8.166;2022-08-19T12:53:45;31.50;34.30
14101;DHT22;7127;49.372;8.166;2022-08-19T12:56:12;31.50;34.10
14101;DHT22;7127;49.372;8.166;2022-08-19T12:58:42;31.50;34.10
14101;DHT22;7127;49.372;8.166;2022-08-19T13:01:11;31.50;34.30
14101;DHT22;7127;49.372;8.166;2022-08-19T13:03:38;31.60;34.40
14101;DHT22;7127;49.372;8.166;2022-08-19T13:06:06;31.70;33.80
14101;DHT22;7127;49.372;8.166;2022-08-19T13:08:34;31.70;33.70
14101;DHT22;7127;49.372;8.166;2022-08-19T13:11:07;31.70;33.50
14101;DHT22;7127;49.372;8.166;2022-08-19T13:13:36;31.80;32.90
14101;DHT22;7127;49.372;8.166;2022-08-19T13:16:08;31.80;33.50
14101;DHT22;7127;49.372;8.166;2022-08-19T13:18:36;31.90;33.30
14101;DHT22;7127;49.372;8.166;2022-08-19T13:21:05;31.90;33.40
14101;DHT22;7127;49.372;8.166;2022-08-19T13:23:33;32.00;33.20
14101;DHT22;7127;49.372;8.166;2022-08-19T13:26:03;32.00;33.50
14101;DHT22;7127;49.372;8.166;2022-08-19T13:28:31;32.10;33.50
14101;DHT22;7127;49.372;8.166;2022-08-19T13:31:16;32.20;33.20
14101;DHT22;7127;49.372;8.166;2022-08-19T13:34:00;32.20;33.20
14101;DHT22;7127;49.372;8.166;2022-08-19T13:36:27;32.20;33.30
14101;DHT22;7127;49.372;8.166;2022-08-19T13:38:54;32.30;33.30
14101;DHT22;7127;49.372;8.166;2022-08-19T13:41:22;32.30;33.20
14101;DHT22;7127;49.372;8.166;2022-08-19T13:43:49;32.30;32.60
14101;DHT22;7127;49.372;8.166;2022-08-19T13:46:17;32.30;32.30
14101;DHT22;7127;49.372;8.166;2022-08-19T13:48:45;32.30;32.10
14101;DHT22;7127;49.372;8.166;2022-08-19T13:51:14;32.30;32.30
14101;DHT22;7127;49.372;8.166;2022-08-19T13:53:42;32.30;32.80
14101;DHT22;7127;49.372;8.166;2022-08-19T13:56:12;32.30;32.50
14101;DHT22;7127;49.372;8.166;2022-08-19T13:58:39;32.30;32.70
14101;DHT22;7127;49.372;8.166;2022-08-19T14:01:07;32.30;32.50
14101;DHT22;7127;49.372;8.166;2022-08-19T14:03:35;32.30;32.30
14101;DHT22;7127;49.372;8.166;2022-08-19T14:06:03;32.30;32.50
14101;DHT22;7127;49.372;8.166;2022-08-19T14:08:30;32.30;32.30
14101;DHT22;7127;49.372;8.166;2022-08-19T14:10:58;32.20;32.40
14101;DHT22;7127;49.372;8.166;2022-08-19T14:13:25;32.20;32.40
14101;DHT22;7127;49.372;8.166;2022-08-19T14:15:52;32.10;31.90
14101;DHT22;7127;49.372;8.166;2022-08-19T14:18:19;32.10;32.20
14101;DHT22;7127;49.372;8.166;2022-08-19T14:20:47;32.00;32.30
14101;DHT22;7127;49.372;8.166;2022-08-19T14:23:14;32.00;32.30
14101;DHT22;7127;49.372;8.166;2022-08-19T14:25:42;31.90;32.30
14101;DHT22;7127;49.372;8.166;2022-08-19T14:28:09;31.80;32.50
14101;DHT22;7127;49.372;8.166;2022-08-19T14:30:36;31.80;32.70
14101;DHT22;7127;49.372;8.166;2022-08-19T14:33:05;31.80;32.80
14101;DHT22;7127;49.372;8.166;2022-08-19T14:35:34;31.70;32.60
14101;DHT22;7127;49.372;8.166;2022-08-19T14:38:03;31.70;32.70
14101;DHT22;7127;49.372;8.166;2022-08-19T14:40:31;31.70;32.70
14101;DHT22;7127;49.372;8.166;2022-08-19T14:43:02;31.70;32.90
14101;DHT22;7127;49.372;8.166;2022-08-19T14:45:32;31.70;32.90
14101;DHT22;7127;49.372;8.166;2022-08-19T14:47:59;31.70;32.90
14101;DHT22;7127;49.372;8.166;2022-08-19T14:50:27;31.70;33.10
14101;DHT22;7127;49.372;8.166;2022-08-19T14:52:59;31.70;33.30
14101;DHT22;7127;49.372;8.166;2022-08-19T14:55:28;31.80;33.10
14101;DHT22;7127;49.372;8.166;2022-08-19T14:57:55;31.80;33.00
14101;DHT22;7127;49.372;8.166;2022-08-19T15:00:22;31.80;32.80
14101;DHT22;7127;49.372;8.166;2022-08-19T15:02:49;31.80;32.50
14101;DHT22;7127;49.372;8.166;2022-08-19T15:05:16;31.80;32.20
14101;DHT22;7127;49.372;8.166;2022-08-19T15:07:44;31.80;32.30
14101;DHT22;7127;49.372;8.166;2022-08-19T15:10:13;31.80;32.20
14101;DHT22;7127;49.372;8.166;2022-08-19T15:12:42;31.80;32.00
14101;DHT22;7127;49.372;8.166;2022-08-19T15:15:12;31.80;32.20
14101;DHT22;7127;49.372;8.166;2022-08-19T15:17:40;31.80;32.40
14101;DHT22;7127;49.372;8.166;2022-08-19T15:20:08;31.70;32.20
14101;DHT22;7127;49.372;8.166;2022-08-19T15:22:36;31.70;32.10
14101;DHT22;7127;49.372;8.166;2022-08-19T15:25:05;31.70;32.40
14101;DHT22;7127;49.372;8.166;2022-08-19T15:27:33;31.70;32.40
14101;DHT22;7127;49.372;8.166;2022-08-19T15:30:03;31.70;32.40
14101;DHT22;7127;49.372;8.166;2022-08-19T15:32:31;31.70;32.70
14101;DHT22;7127;49.372;8.166;2022-08-19T15:34:59;31.70;32.40
14101;DHT22;7127;49.372;8.166;2022-08-19T15:37:27;31.70;32.40
14101;DHT22;7127;49.372;8.166;2022-08-19T15:39:54;31.80;32.40
14101;DHT22;7127;49.372;8.166;2022-08-19T15:42:21;31.80;32.60
14101;DHT22;7127;49.372;8.166;2022-08-19T15:44:48;31.80;32.50
14101;DHT22;7127;49.372;8.166;2022-08-19T15:47:18;31.90;32.70
14101;DHT22;7127;49.372;8.166;2022-08-19T15:49:45;31.90;32.60
14101;DHT22;7127;49.372;8.166;2022-08-19T15:52:13;31.90;32.60
14101;DHT22;7127;49.372;8.166;2022-08-19T15:54:40;32.00;32.60
14101;DHT22;7127;49.372;8.166;2022-08-19T15:57:07;32.00;32.40
14101;DHT22;7127;49.372;8.166;2022-08-19T15:59:51;32.00;32.50
14101;DHT22;7127;49.372;8.166;2022-08-19T16:02:37;32.10;32.40
14101;DHT22;7127;49.372;8.166;2022-08-19T16:05:23;32.10;33.00
14101;DHT22;7127;49.372;8.166;2022-08-19T16:08:08;32.10;31.90
14101;DHT22;7127;49.372;8.166;2022-08-19T16:10:36;32.10;32.30
14101;DHT22;7127;49.372;8.166;2022-08-19T16:13:04;32.10;32.00
14101;DHT22;7127;49.372;8.166;2022-08-19T16:15:32;32.10;32.20
14101;DHT22;7127;49.372;8.166;2022-08-19T16:18:00;32.10;32.30
14101;DHT22;7127;49.372;8.166;2022-08-19T16:20:29;32.10;32.30
14101;DHT22;7127;49.372;8.166;2022-08-19T16:22:57;32.20;32.30
14101;DHT22;7127;49.372;8.166;2022-08-19T16:25:25;32.30;32.20
14101;DHT22;7127;49.372;8.166;2022-08-19T16:27:53;32.30;32.30
14101;DHT22;7127;49.372;8.166;2022-08-19T16:30:20;32.20;32.30
14101;DHT22;7127;49.372;8.166;2022-08-19T16:32:48;32.30;32.50
14101;DHT22;7127;49.372;8.166;2022-08-19T16:35:16;32.30;32.60
14101;DHT22;7127;49.372;8.166;2022-08-19T16:37:44;32.30;32.50
14101;DHT22;7127;49.372;8.166;2022-08-19T16:40:11;32.30;32.10
14101;DHT22;7127;49.372;8.166;2022-08-19T16:42:39;32.30;32.00
14101;DHT22;7127;49.372;8.166;2022-08-19T16:45:06;32.30;31.80
14101;DHT22;7127;49.372;8.166;2022-08-19T16:47:34;32.20;31.80
14101;DHT22;7127;49.372;8.166;2022-08-19T16:50:02;32.20;31.90
14101;DHT22;7127;49.372;8.166;2022-08-19T16:52:33;32.10;31.70
14101;DHT22;7127;49.372;8.166;2022-08-19T16:55:03;32.10;31.80
14101;DHT22;7127;49.372;8.166;2022-08-19T16:57:30;32.10;31.70